Time;durP1;ratioP1;P1;durP2;ratioP2;P2;SDS_P1;SDS_P2;PMS_P1;PMS_P2;Temp;Humidity;BMP_temperature;BMP_pressure;BME280_temperature;BME280_humidity;BME280_pressure;Samples;Min_cycle;Max_cycle;Signal;HPM_P1;HPM_P2
2022/07/14 00:00:45;;;;;;;;;21.33;20.33;;;;;23.70;56.83;100677.04;110436;1261;19055;-64
2022/07/14 00:03:12;;;;;;;;;20.00;18.00;;;;;23.67;57.01;100672.14;110569;1258;20163;-66
2022/07/14 00:05:40;;;;;;;;;20.67;20.33;;;;;23.67;57.07;100673.14;110506;1259;18971;-64
2022/07/14 00:08:07;;;;;;;;;21.67;20.67;;;;;23.66;56.91;100676.81;110729;1258;18998;-65
2022/07/14 00:10:34;;;;;;;;;20.67;20.33;;;;;23.64;56.96;100676.47;110691;1258;19492;-65
2022/07/14 00:13:02;;;;;;;;;23.00;22.00;;;;;23.61;56.89;100676.11;110632;1258;19339;-65
2022/07/14 00:15:29;;;;;;;;;22.50;22.50;;;;;23.60;57.01;100683.33;110523;1258;22107;-65
2022/07/14 00:17:58;;;;;;;;;21.33;20.67;;;;;23.62;56.88;100685.89;110452;1258;21118;-65
2022/07/14 00:20:25;;;;;;;;;22.00;21.00;;;;;23.63;56.60;100678.23;110729;1258;19256;-65
2022/07/14 00:22:52;;;;;;;;;21.00;20.00;;;;;23.62;56.60;100675.99;110530;1260;20038;-64
2022/07/14 00:25:20;;;;;;;;;23.00;22.00;;;;;23.59;56.72;100677.36;110565;1259;20104;-66
2022/07/14 00:27:48;;;;;;;;;22.00;21.00;;;;;23.59;56.74;100678.79;110541;1259;22864;-65
2022/07/14 00:30:15;;;;;;;;;22.67;22.00;;;;;23.57;56.95;100675.45;110566;1259;20251;-66
2022/07/14 00:32:42;;;;;;;;;20.00;20.00;;;;;23.56;56.81;100677.52;110486;1262;19495;-65
2022/07/14 00:35:09;;;;;;;;;21.00;21.00;;;;;23.58;57.00;100680.30;110508;1261;18826;-65
2022/07/14 00:37:37;;;;;;;;;21.67;21.67;;;;;23.60;56.76;100675.35;110469;1261;21043;-65
2022/07/14 00:40:04;;;;;;;;;20.33;20.00;;;;;23.60;56.69;100674.23;110489;1260;19812;-65
2022/07/14 00:42:32;;;;;;;;;22.00;21.00;;;;;23.57;56.61;100671.84;110494;1261;21942;-64
2022/07/14 00:44:59;;;;;;;;;21.33;20.33;;;;;23.56;56.84;100671.71;110410;1260;18930;-67
2022/07/14 00:47:26;;;;;;;;;21.00;20.67;;;;;23.55;56.68;100676.16;110471;1261;20932;-64
2022/07/14 00:49:54;;;;;;;;;19.67;19.33;;;;;23.53;56.70;100676.80;110529;1261;18717;-65
2022/07/14 00:52:21;;;;;;;;;21.00;20.00;;;;;23.52;56.72;100674.98;110560;1258;19215;-64
2022/07/14 00:54:48;;;;;;;;;21.00;20.00;;;;;23.53;56.73;100678.40;110583;1258;19488;-65
2022/07/14 00:57:16;;;;;;;;;21.33;21.33;;;;;23.56;56.61;100682.65;110586;1258;19019;-66
2022/07/14 00:59:43;;;;;;;;;20.33;20.33;;;;;23.55;56.70;100680.71;110502;1259;19074;-66
2022/07/14 01:02:10;;;;;;;;;21.67;20.67;;;;;23.55;56.61;100678.39;110587;1258;22627;-65
2022/07/14 01:04:38;;;;;;;;;23.00;23.00;;;;;23.56;56.72;100684.29;110576;1259;18975;-67
2022/07/14 01:07:05;;;;;;;;;22.00;22.00;;;;;23.53;56.84;100682.79;110452;1259;18921;-66
2022/07/14 01:09:32;;;;;;;;;21.33;20.67;;;;;23.49;56.79;100681.12;110416;1258;19604;-65
2022/07/14 01:12:00;;;;;;;;;20.67;20.00;;;;;23.49;56.87;100678.98;110587;1258;19008;-66
2022/07/14 01:14:27;;;;;;;;;19.00;18.67;;;;;23.49;56.80;100679.86;110557;1259;18931;-64
2022/07/14 01:16:55;;;;;;;;;25.00;25.00;;;;;23.50;56.74;100679.52;110541;1259;19605;-65
2022/07/14 01:19:22;;;;;;;;;22.67;20.33;;;;;23.45;57.00;100677.25;110544;1259;18736;-62
2022/07/14 01:21:49;;;;;;;;;24.00;22.50;;;;;23.41;57.18;100670.84;110519;1258;18801;-64
2022/07/14 01:24:17;;;;;;;;;23.00;22.00;;;;;23.41;57.06;100674.55;110544;1259;19587;-64
2022/07/14 01:26:44;;;;;;;;;22.33;21.00;;;;;23.38;57.22;100673.23;110518;1259;19130;-64
2022/07/14 01:29:11;;;;;;;;;20.67;20.67;;;;;23.40;56.99;100674.08;110714;1258;19261;-65
2022/07/14 01:31:38;;;;;;;;;22.67;22.00;;;;;23.44;57.00;100673.23;110572;1258;19773;-65
2022/07/14 01:34:06;;;;;;;;;22.00;20.33;;;;;23.48;56.84;100674.33;110589;1258;18932;-66
2022/07/14 01:36:33;;;;;;;;;17.67;17.00;;;;;23.48;56.72;100673.86;110565;1258;22067;-65
2022/07/14 01:39:00;;;;;;;;;18.00;17.00;;;;;23.47;56.78;100677.41;110704;1259;19673;-66
2022/07/14 01:41:28;;;;;;;;;22.00;20.00;;;;;23.46;56.55;100676.07;110628;1259;21138;-65
2022/07/14 01:43:55;;;;;;;;;24.67;21.00;;;;;23.44;56.62;100676.61;110588;1258;18845;-65
2022/07/14 01:46:22;;;;;;;;;17.00;17.00;;;;;23.43;56.58;100674.08;110394;1259;19491;-66
2022/07/14 01:48:49;;;;;;;;;18.00;17.33;;;;;23.42;56.50;100670.05;110538;1258;18952;-66
2022/07/14 01:51:17;;;;;;;;;20.67;17.00;;;;;23.35;56.61;100670.96;110745;1259;20903;-66
2022/07/14 01:53:44;;;;;;;;;18.00;18.00;;;;;23.32;56.72;100667.91;110517;1259;19600;-64
2022/07/14 01:56:12;;;;;;;;;16.33;16.00;;;;;23.31;56.70;100669.42;110492;1261;18923;-64
2022/07/14 01:58:40;;;;;;;;;16.00;15.00;;;;;23.33;56.60;100671.73;110579;1258;23421;-65
2022/07/14 02:03:52;;;;;;;;;15.00;15.00;;;;;23.33;56.53;100675.07;110563;1259;22855;-65
2022/07/14 02:06:19;;;;;;;;;15.00;15.00;;;;;23.32;56.61;100665.84;110544;1258;19101;-65
2022/07/14 02:08:46;;;;;;;;;18.00;17.00;;;;;23.32;56.49;100665.09;110469;1259;19425;-65
2022/07/14 02:14:10;;;;;;;;;16.00;15.67;;;;;23.36;56.44;100668.48;110064;1265;18819;-65
2022/07/14 02:16:37;;;;;;;;;16.00;16.00;;;;;23.32;56.43;100666.60;110065;1264;19913;-68
2022/07/14 02:19:05;;;;;;;;;16.50;16.50;;;;;23.28;56.43;100664.38;110162;1264;22691;-65
2022/07/14 02:21:32;;;;;;;;;17.00;16.00;;;;;23.26;56.49;100671.17;110158;1265;19550;-66
2022/07/14 02:23:59;;;;;;;;;15.33;15.00;;;;;23.24;56.47;100674.73;110166;1265;21362;-65
2022/07/14 02:26:27;;;;;;;;;14.67;13.33;;;;;23.20;56.78;100670.11;110185;1265;20082;-65
2022/07/14 02:28:55;;;;;;;;;15.00;15.00;;;;;23.17;56.80;100671.13;110180;1265;20222;-65
2022/07/14 02:31:22;;;;;;;;;16.00;16.00;;;;;23.19;56.67;100676.38;110134;1265;19629;-64
2022/07/14 02:33:49;;;;;;;;;12.33;12.00;;;;;23.21;56.65;100678.44;110168;1265;18930;-65
2022/07/14 02:36:17;;;;;;;;;15.00;15.00;;;;;23.21;56.47;100676.21;110156;1264;22527;-65
2022/07/14 02:38:44;;;;;;;;;14.33;13.33;;;;;23.19;56.38;100685.13;110049;1265;19868;-66
2022/07/14 02:41:11;;;;;;;;;16.00;16.00;;;;;23.19;56.34;100684.82;110168;1265;18960;-67
2022/07/14 02:43:39;;;;;;;;;16.00;15.33;;;;;23.18;56.49;100685.61;110026;1265;19039;-65
2022/07/14 02:46:06;;;;;;;;;16.00;15.00;;;;;23.21;56.18;100694.39;110056;1265;19554;-64
2022/07/14 02:48:33;;;;;;;;;12.67;12.67;;;;;23.20;56.36;100695.23;110133;1261;20387;-65
2022/07/14 02:51:00;;;;;;;;;12.00;12.00;;;;;23.19;56.15;100696.82;110462;1261;18936;-66
2022/07/14 02:53:28;;;;;;;;;16.00;15.00;;;;;23.19;56.08;100694.42;110740;1258;19626;-64
2022/07/14 02:55:55;;;;;;;;;17.00;16.00;;;;;23.18;56.14;100697.16;110752;1258;18727;-65
2022/07/14 02:58:23;;;;;;;;;14.00;12.67;;;;;23.18;56.04;100702.64;110629;1258;18904;-65
2022/07/14 03:00:51;;;;;;;;;15.00;13.33;;;;;23.19;55.99;100706.91;110537;1259;19604;-65
2022/07/14 03:03:18;;;;;;;;;12.00;12.00;;;;;23.18;56.01;100700.61;110581;1258;18673;-66
2022/07/14 03:05:46;;;;;;;;;15.00;15.00;;;;;23.13;56.23;100699.17;110512;1259;18937;-65
2022/07/14 03:08:13;;;;;;;;;15.33;15.00;;;;;23.13;56.09;100704.52;110772;1258;19653;-64
2022/07/14 03:10:40;;;;;;;;;15.00;15.00;;;;;23.15;56.17;100706.86;110572;1259;20806;-64
2022/07/14 03:13:08;;;;;;;;;13.00;12.00;;;;;23.14;55.93;100707.89;110591;1259;19194;-63
2022/07/14 03:15:35;;;;;;;;;15.33;15.33;;;;;23.13;55.94;100705.24;110696;1259;19624;-64
2022/07/14 03:18:02;;;;;;;;;16.00;15.67;;;;;23.14;55.91;100706.93;110498;1259;18798;-66
2022/07/14 03:20:30;;;;;;;;;20.33;19.00;;;;;23.16;55.93;100708.33;110558;1259;22337;-65
2022/07/14 03:22:57;;;;;;;;;20.00;17.00;;;;;23.16;55.93;100708.70;110607;1258;19416;-64
2022/07/14 03:25:24;;;;;;;;;22.00;22.00;;;;;23.12;55.75;100707.02;110563;1258;18844;-64
2022/07/14 03:27:51;;;;;;;;;28.00;27.00;;;;;23.09;56.05;100708.68;110585;1259;19040;-65
2022/07/14 03:30:19;;;;;;;;;27.00;24.00;;;;;23.10;56.00;100712.19;110567;1259;19670;-66
2022/07/14 03:32:46;;;;;;;;;25.67;24.00;;;;;23.11;55.98;100713.98;110536;1259;18774;-66
2022/07/14 03:35:14;;;;;;;;;22.00;20.67;;;;;23.12;56.05;100712.86;110539;1261;18818;-66
2022/07/14 03:37:41;;;;;;;;;20.67;20.00;;;;;23.09;56.06;100718.39;110581;1258;19508;-65
2022/07/14 03:40:08;;;;;;;;;19.00;18.67;;;;;23.06;56.11;100719.45;110587;1259;18653;-64
2022/07/14 03:42:35;;;;;;;;;18.67;17.00;;;;;23.04;56.21;100721.36;110693;1258;21852;-66
2022/07/14 03:45:03;;;;;;;;;22.00;20.00;;;;;22.94;56.45;100723.44;110492;1258;19526;-66
2022/07/14 03:47:30;;;;;;;;;20.50;20.00;;;;;22.92;56.44;100724.42;110713;1258;22101;-63
2022/07/14 03:49:58;;;;;;;;;18.67;17.33;;;;;22.96;56.44;100731.52;110589;1259;18807;-65
2022/07/14 03:52:26;;;;;;;;;17.67;17.00;;;;;23.01;56.28;100734.90;110592;1259;21068;-66
2022/07/14 03:54:53;;;;;;;;;20.00;18.67;;;;;22.99;56.32;100734.84;110534;1259;18670;-64
2022/07/14 03:57:20;;;;;;;;;16.00;16.00;;;;;23.02;56.32;100738.26;110571;1258;19096;-66
2022/07/14 03:59:48;;;;;;;;;16.33;15.33;;;;;23.01;56.25;100743.38;110503;1259;19796;-65
2022/07/14 04:02:15;;;;;;;;;17.67;15.33;;;;;23.00;56.27;100742.94;110605;1259;18828;-65
2022/07/14 04:04:43;;;;;;;;;14.00;14.00;;;;;22.99;56.32;100749.19;110580;1259;18953;-64
2022/07/14 04:07:10;;;;;;;;;12.00;11.67;;;;;22.93;56.48;100751.45;110716;1258;23670;-65
2022/07/14 04:09:37;;;;;;;;;18.67;17.00;;;;;22.93;56.41;100752.94;110701;1258;22871;-65
2022/07/14 04:12:04;;;;;;;;;20.50;18.00;;;;;22.94;56.42;100746.77;110460;1259;18952;-66
2022/07/14 04:14:31;;;;;;;;;16.33;16.00;;;;;22.96;56.32;100755.76;110531;1259;19709;-65
2022/07/14 04:16:59;;;;;;;;;15.00;15.00;;;;;22.94;56.34;100755.89;110550;1259;19016;-65
2022/07/14 04:19:26;;;;;;;;;17.00;15.67;;;;;22.94;56.27;100751.70;110582;1259;18808;-64
2022/07/14 04:21:53;;;;;;;;;15.33;15.33;;;;;22.98;56.27;100753.77;110566;1259;22766;-65
2022/07/14 04:24:21;;;;;;;;;15.00;15.00;;;;;22.98;56.13;100755.81;110566;1258;18834;-66
2022/07/14 04:26:48;;;;;;;;;16.00;15.00;;;;;22.98;56.21;100754.48;110720;1258;19296;-65
2022/07/14 04:29:15;;;;;;;;;17.00;14.00;;;;;22.93;56.18;100759.46;110626;1259;19658;-66
2022/07/14 04:31:42;;;;;;;;;12.67;11.67;;;;;22.87;56.33;100759.70;110571;1258;18779;-65
2022/07/14 04:34:10;;;;;;;;;12.00;12.00;;;;;22.89;56.30;100759.16;110569;1258;18774;-64
2022/07/14 04:36:37;;;;;;;;;12.00;12.00;;;;;22.78;56.27;100764.23;110552;1259;19455;-67
2022/07/14 04:39:05;;;;;;;;;11.00;11.00;;;;;22.76;56.54;100762.90;110550;1259;18735;-66
2022/07/14 04:41:32;;;;;;;;;11.33;11.00;;;;;22.80;56.27;100765.98;110549;1258;18745;-58
2022/07/14 04:43:59;;;;;;;;;17.00;16.00;;;;;22.88;56.32;100767.48;110583;1259;20515;-63
2022/07/14 04:46:26;;;;;;;;;17.00;16.00;;;;;22.85;56.06;100769.43;110520;1258;19106;-60
2022/07/14 04:54:24;;;;;;;;;19.67;19.33;;;;;22.65;56.49;100761.17;110706;1258;18836;-62
2022/07/14 04:56:52;;;;;;;;;14.67;14.33;;;;;22.70;56.52;100756.04;110383;1259;21848;-58
2022/07/14 04:59:19;;;;;;;;;18.33;16.67;;;;;22.61;56.43;100753.95;110619;1258;19620;-60
2022/07/14 05:01:46;;;;;;;;;17.33;16.67;;;;;22.47;57.04;100759.38;110494;1259;18761;-60
2022/07/14 05:04:14;;;;;;;;;14.00;12.00;;;;;22.58;57.16;100758.70;110621;1258;18906;-59
2022/07/14 05:06:41;;;;;;;;;15.67;15.33;;;;;22.67;57.09;100760.00;110706;1259;22142;-60
2022/07/14 05:09:08;;;;;;;;;14.00;12.00;;;;;22.76;56.83;100763.61;110532;1258;22291;-57
2022/07/14 05:11:35;;;;;;;;;18.00;15.00;;;;;22.79;56.85;100763.06;110517;1259;22804;-58
2022/07/14 05:14:03;;;;;;;;;16.67;16.00;;;;;22.65;57.11;100760.98;110606;1258;19807;-59
2022/07/14 05:16:30;;;;;;;;;18.67;15.00;;;;;22.59;57.56;100762.82;110532;1258;19035;-60
2022/07/14 05:18:57;;;;;;;;;16.00;15.00;;;;;22.40;57.63;100765.23;110648;1258;18745;-61
2022/07/14 05:21:26;;;;;;;;;22.00;20.00;;;;;22.13;58.63;100766.03;110623;1259;19760;-63
2022/07/14 05:23:53;;;;;;;;;19.67;19.00;;;;;22.16;58.82;100763.01;110396;1259;18852;-62
2022/07/14 05:26:20;;;;;;;;;21.00;19.00;;;;;22.36;58.62;100766.56;110792;1258;20472;-64
2022/07/14 05:28:48;;;;;;;;;15.67;15.67;;;;;22.43;58.40;100764.75;110579;1259;19451;-61
2022/07/14 05:31:15;;;;;;;;;17.33;15.00;;;;;22.56;58.21;100765.48;110638;1258;18799;-62
2022/07/14 05:33:42;;;;;;;;;11.00;11.00;;;;;22.51;58.16;100767.63;110630;1259;18960;-61
2022/07/14 05:36:10;;;;;;;;;17.50;15.50;;;;;22.33;58.61;100771.68;110608;1258;23340;-64
2022/07/14 05:38:37;;;;;;;;;20.67;19.67;;;;;22.26;58.79;100767.34;110650;1258;20904;-61
2022/07/14 05:41:04;;;;;;;;;26.00;23.33;;;;;22.22;59.04;100770.22;110520;1260;19262;-63
2022/07/14 05:43:32;;;;;;;;;17.33;15.33;;;;;22.34;58.75;100772.92;110521;1258;19795;-64
2022/07/14 05:45:59;;;;;;;;;20.50;15.50;;;;;22.35;58.61;100769.23;110602;1259;18898;-65
2022/07/14 05:48:26;;;;;;;;;15.00;14.00;;;;;22.34;58.29;100767.36;110636;1258;18928;-64
2022/07/14 05:50:54;;;;;;;;;14.50;12.00;;;;;22.28;58.22;100766.52;110590;1258;23490;-63
2022/07/14 05:53:21;;;;;;;;;14.67;13.00;;;;;21.88;58.67;100765.75;110759;1258;19192;-63
2022/07/14 05:55:48;;;;;;;;;15.00;13.50;;;;;21.87;58.90;100766.80;110654;1258;19119;-63
2022/07/14 05:58:16;;;;;;;;;12.33;11.00;;;;;22.09;58.47;100771.80;110666;1258;19664;-63
2022/07/14 06:00:43;;;;;;;;;10.50;10.50;;;;;22.01;58.18;100768.95;110519;1258;19053;-63
2022/07/14 06:03:11;;;;;;;;;15.33;14.33;;;;;22.10;57.59;100762.98;110709;1259;19096;-64
2022/07/14 06:05:38;;;;;;;;;18.67;15.33;;;;;22.07;57.13;100767.14;110597;1258;19613;-62
2022/07/14 06:08:06;;;;;;;;;15.67;13.67;;;;;22.16;56.53;100770.79;110561;1259;18778;-63
2022/07/14 06:10:33;;;;;;;;;11.67;11.00;;;;;22.26;55.97;100767.95;110652;1258;22172;-66
2022/07/14 06:13:01;;;;;;;;;13.33;13.00;;;;;22.28;55.40;100765.90;110535;1258;19674;-62
2022/07/14 06:15:28;;;;;;;;;14.00;11.00;;;;;22.38;54.88;100760.47;110567;1259;18734;-62
2022/07/14 06:17:55;;;;;;;;;11.00;10.00;;;;;22.48;53.99;100756.46;110439;1258;18772;-61
2022/07/14 06:20:22;;;;;;;;;10.00;9.00;;;;;22.54;53.39;100751.21;110693;1258;19537;-64
2022/07/14 06:22:50;;;;;;;;;10.00;9.00;;;;;22.62;53.00;100756.73;110439;1259;18902;-62
2022/07/14 06:25:17;;;;;;;;;14.00;12.00;;;;;22.64;52.81;100758.79;110550;1259;18998;-64
2022/07/14 06:27:45;;;;;;;;;15.00;14.00;;;;;22.65;52.62;100764.59;110669;1258;22120;-63
2022/07/14 06:30:12;;;;;;;;;15.00;14.00;;;;;22.64;52.48;100775.54;110461;1259;19038;-64
2022/07/14 06:32:40;;;;;;;;;14.00;12.00;;;;;22.68;52.23;100766.80;110532;1258;18957;-63
2022/07/14 06:35:07;;;;;;;;;11.67;10.00;;;;;22.67;51.77;100772.19;110529;1259;19468;-62
2022/07/14 06:37:35;;;;;;;;;6.33;6.33;;;;;22.64;51.24;100770.14;110476;1258;18783;-60
2022/07/14 06:40:04;;;;;;;;;6.67;6.67;;;;;22.59;50.71;100771.20;110460;1258;18775;-63
2022/07/14 06:42:32;;;;;;;;;7.00;6.00;;;;;22.53;50.55;100780.07;110855;1259;19727;-62
2022/07/14 06:44:59;;;;;;;;;7.00;6.00;;;;;22.65;50.44;100774.55;110665;1258;18454;-63
2022/07/14 06:47:26;;;;;;;;;6.00;6.00;;;;;22.75;50.14;100778.00;110747;1258;18725;-63
2022/07/14 06:49:53;;;;;;;;;8.33;7.00;;;;;22.79;50.20;100778.57;110688;1258;23714;-62
2022/07/14 06:52:21;;;;;;;;;7.00;7.00;;;;;22.92;49.87;100776.98;110654;1258;18759;-63
2022/07/14 06:54:50;;;;;;;;;6.67;6.33;;;;;22.94;49.64;100775.95;110594;1258;18847;-63
2022/07/14 06:57:17;;;;;;;;;8.00;7.00;;;;;22.85;49.44;100779.50;110543;1258;19669;-64
2022/07/14 06:59:45;;;;;;;;;8.00;6.00;;;;;22.91;49.71;100776.67;110711;1258;18662;-62
2022/07/14 07:02:12;;;;;;;;;9.00;9.00;;;;;23.11;49.93;100776.26;110528;1259;18907;-64
2022/07/14 07:04:39;;;;;;;;;7.67;6.33;;;;;23.10;49.90;100776.34;110660;1258;22925;-63
2022/07/14 07:07:07;;;;;;;;;7.00;6.67;;;;;22.89;49.80;100779.33;110585;1258;18607;-59
2022/07/14 07:09:34;;;;;;;;;6.00;6.00;;;;;22.85;49.73;100779.80;110592;1258;20696;-63
2022/07/14 07:12:01;;;;;;;;;6.50;6.50;;;;;23.04;49.37;100781.09;110699;1258;19767;-60
2022/07/14 07:14:28;;;;;;;;;6.00;6.00;;;;;23.01;49.04;100776.38;110659;1258;18876;-62
2022/07/14 07:16:56;;;;;;;;;6.67;6.00;;;;;23.09;48.94;100783.38;110697;1258;22830;-62
2022/07/14 07:19:23;;;;;;;;;7.67;6.67;;;;;23.29;48.66;100780.71;110660;1258;19584;-62
2022/07/14 07:21:50;;;;;;;;;6.00;5.00;;;;;23.40;48.39;100786.26;110693;1258;18426;-63
2022/07/14 07:24:17;;;;;;;;;6.33;6.00;;;;;23.40;47.99;100783.73;110587;1258;19063;-63
2022/07/14 07:26:45;;;;;;;;;5.67;5.67;;;;;23.50;47.17;100784.57;110723;1258;19607;-63
2022/07/14 07:29:12;;;;;;;;;6.33;6.00;;;;;23.48;46.94;100786.11;110807;1258;18501;-64
2022/07/14 07:31:39;;;;;;;;;6.00;6.00;;;;;23.48;46.88;100787.08;110724;1259;18810;-64
2022/07/14 07:34:07;;;;;;;;;6.50;6.00;;;;;23.54;46.91;100783.10;110699;1258;19482;-63
2022/07/14 07:36:34;;;;;;;;;6.50;6.00;;;;;23.50;46.88;100790.83;110653;1258;18739;-61
2022/07/14 07:39:01;;;;;;;;;5.00;5.00;;;;;23.47;46.89;100793.17;110716;1258;19156;-64
2022/07/14 07:41:28;;;;;;;;;6.67;6.00;;;;;23.47;46.94;100793.00;110172;1258;777837;-63
2022/07/14 07:43:57;;;;;;;;;6.00;6.00;;;;;23.44;46.76;100799.23;110739;1258;19987;-63
2022/07/14 07:46:26;;;;;;;;;6.00;6.00;;;;;23.43;46.33;100794.29;110613;1259;18716;-63
2022/07/14 07:48:53;;;;;;;;;6.00;5.00;;;;;23.43;46.26;100790.42;110523;1259;19539;-65
2022/07/14 07:51:20;;;;;;;;;6.67;6.67;;;;;23.46;46.23;100784.36;110516;1258;22204;-65
2022/07/14 07:53:47;;;;;;;;;6.00;6.00;;;;;23.54;46.14;100795.85;110368;1259;18797;-64
2022/07/14 07:56:15;;;;;;;;;6.00;5.00;;;;;23.53;45.99;100792.14;110639;1259;19604;-64
2022/07/14 07:58:42;;;;;;;;;6.00;6.00;;;;;23.45;46.26;100789.73;110662;1258;18638;-63
2022/07/14 08:01:10;;;;;;;;;7.00;6.00;;;;;23.49;46.15;100788.94;110660;1258;20268;-64
2022/07/14 08:03:37;;;;;;;;;8.00;7.00;;;;;23.58;45.87;100791.23;110657;1258;19546;-63
2022/07/14 08:06:04;;;;;;;;;16.00;13.33;;;;;23.54;45.79;100788.11;110706;1259;18387;-63
2022/07/14 08:08:32;;;;;;;;;11.00;11.00;;;;;23.63;45.89;100787.00;110696;1258;18881;-61
2022/07/14 08:10:59;;;;;;;;;10.67;9.67;;;;;23.53;45.50;100786.83;110656;1258;19473;-64
2022/07/14 08:13:26;;;;;;;;;8.00;7.00;;;;;23.57;45.42;100786.96;110550;1259;22076;-63
2022/07/14 08:15:54;;;;;;;;;7.00;7.00;;;;;23.62;45.28;100785.48;110546;1258;18721;-62
2022/07/14 08:18:21;;;;;;;;;6.00;6.00;;;;;23.67;44.87;100793.75;110504;1258;19416;-66
2022/07/14 08:20:49;;;;;;;;;7.00;7.00;;;;;23.66;45.07;100790.83;110630;1258;18713;-63
2022/07/14 08:23:17;;;;;;;;;7.50;7.50;;;;;23.60;45.07;100788.30;110633;1258;22239;-64
2022/07/14 08:25:44;;;;;;;;;5.67;5.67;;;;;23.63;45.37;100788.81;110498;1258;19925;-64
2022/07/14 08:28:11;;;;;;;;;6.00;5.67;;;;;23.69;45.09;100793.18;110555;1259;18403;-62
2022/07/14 08:30:38;;;;;;;;;5.00;5.00;;;;;23.76;44.73;100794.09;110647;1258;18809;-66
2022/07/14 08:33:07;;;;;;;;;6.00;6.00;;;;;23.73;44.64;100793.08;110505;1259;19494;-62
2022/07/14 08:35:35;;;;;;;;;6.33;6.33;;;;;23.58;44.97;100796.11;110516;1259;18382;-63
2022/07/14 08:38:02;;;;;;;;;6.00;6.00;;;;;23.61;44.95;100795.58;110569;1259;19895;-64
2022/07/14 08:40:29;;;;;;;;;6.00;6.00;;;;;23.82;44.44;100796.63;110705;1258;19776;-63
2022/07/14 08:42:57;;;;;;;;;6.33;6.33;;;;;23.88;43.60;100794.88;110674;1258;18365;-65
2022/07/14 08:45:24;;;;;;;;;8.00;6.67;;;;;23.90;43.03;100792.58;110701;1258;19338;-62
2022/07/14 08:47:52;;;;;;;;;8.00;8.00;;;;;23.90;43.08;100791.94;110293;1258;19620;-64
2022/07/14 08:50:20;;;;;;;;;7.33;7.00;;;;;24.12;43.13;100785.48;110593;1258;18609;-62
2022/07/14 08:52:47;;;;;;;;;8.00;7.00;;;;;24.19;42.88;100779.61;110558;1258;19180;-63
2022/07/14 08:55:14;;;;;;;;;8.00;7.00;;;;;24.16;43.01;100786.99;110552;1258;19580;-64
2022/07/14 08:57:41;;;;;;;;;7.00;7.00;;;;;24.18;43.03;100779.52;110568;1258;18709;-64
2022/07/14 09:00:10;;;;;;;;;8.00;7.33;;;;;24.06;43.30;100780.71;110676;1258;18781;-63
2022/07/14 09:02:37;;;;;;;;;10.00;8.00;;;;;24.03;43.44;100779.30;110593;1259;19442;-63
2022/07/14 09:05:05;;;;;;;;;10.00;7.67;;;;;24.10;43.64;100780.92;110473;1259;18670;-66
2022/07/14 09:07:32;;;;;;;;;6.00;6.00;;;;;24.16;43.06;100777.94;110532;1258;18765;-64
2022/07/14 09:09:59;;;;;;;;;9.33;8.00;;;;;24.22;42.32;100779.92;110455;1259;22580;-62
2022/07/14 09:12:27;;;;;;;;;8.00;7.33;;;;;24.32;42.35;100779.75;110537;1258;18396;-65
2022/07/14 09:17:39;;;;;;;;;6.00;6.00;;;;;24.24;42.38;100785.16;110710;1258;20947;-64
2022/07/14 09:20:07;;;;;;;;;7.00;7.00;;;;;24.07;41.84;100789.44;110554;1259;20005;-64
2022/07/14 09:22:36;;;;;;;;;8.00;8.00;;;;;24.14;41.63;100789.17;110678;1259;20494;-64
2022/07/14 09:25:03;;;;;;;;;6.00;6.00;;;;;24.29;41.65;100781.27;110776;1258;19619;-64
2022/07/14 09:27:31;;;;;;;;;7.33;6.67;;;;;24.27;41.57;100776.60;110477;1258;18446;-62
2022/07/14 09:29:58;;;;;;;;;6.00;6.00;;;;;24.22;41.27;100779.79;110485;1258;18747;-63
2022/07/14 09:32:26;;;;;;;;;8.00;7.00;;;;;24.31;41.07;100781.60;110595;1258;22762;-65
2022/07/14 09:34:53;;;;;;;;;5.33;5.33;;;;;24.41;41.26;100785.40;110648;1259;18653;-64
2022/07/14 09:37:21;;;;;;;;;6.00;6.00;;;;;24.49;41.38;100776.85;110625;1258;19245;-62
2022/07/14 09:39:49;;;;;;;;;10.67;9.33;;;;;24.66;41.26;100780.60;110691;1258;19729;-63
2022/07/14 09:42:16;;;;;;;;;11.00;9.00;;;;;24.74;41.04;100781.70;110679;1258;22024;-63
2022/07/14 09:44:43;;;;;;;;;8.67;6.67;;;;;24.64;40.75;100778.39;110536;1259;19183;-63
2022/07/14 09:47:11;;;;;;;;;21.00;21.00;;;;;24.51;40.51;100767.55;110594;1259;20160;-65
2022/07/14 09:49:40;;;;;;;;;27.50;23.50;;;;;24.47;40.50;100767.56;110535;1259;18422;-64
2022/07/14 09:52:07;;;;;;;;;18.67;18.67;;;;;24.63;40.36;100766.36;110545;1259;18920;-63
2022/07/14 09:54:35;;;;;;;;;17.67;17.33;;;;;24.62;40.10;100763.75;110591;1259;19687;-66
2022/07/14 09:57:02;;;;;;;;;16.33;14.67;;;;;24.52;39.66;100768.58;110494;1258;18757;-65
2022/07/14 09:59:30;;;;;;;;;12.00;12.00;;;;;24.51;39.17;100763.80;110589;1259;18790;-62
2022/07/14 10:01:57;;;;;;;;;11.00;11.00;;;;;24.53;39.48;100753.90;110705;1258;19722;-62
2022/07/14 10:04:24;;;;;;;;;12.00;12.00;;;;;24.60;39.21;100753.77;110583;1258;22230;-64
2022/07/14 10:06:51;;;;;;;;;7.00;6.00;;;;;24.54;39.21;100748.57;110557;1258;19102;-61
2022/07/14 10:09:19;;;;;;;;;11.00;9.00;;;;;24.54;38.99;100740.38;110660;1258;19513;-62
2022/07/14 10:11:46;;;;;;;;;7.00;7.00;;;;;24.55;38.71;100741.40;110501;1258;18419;-63
2022/07/14 10:14:14;;;;;;;;;8.00;8.00;;;;;24.51;38.54;100738.25;110590;1258;18883;-62
2022/07/14 10:16:41;;;;;;;;;8.00;7.33;;;;;24.68;38.55;100743.58;110571;1258;21499;-62
2022/07/14 10:19:08;;;;;;;;;6.00;6.00;;;;;24.70;38.33;100739.92;110475;1259;18605;-63
2022/07/14 10:21:35;;;;;;;;;7.00;6.00;;;;;24.70;37.78;100741.14;110676;1258;18873;-64
2022/07/14 10:24:02;;;;;;;;;6.00;5.50;;;;;24.72;37.63;100746.55;110477;1259;21216;-64
2022/07/14 10:26:30;;;;;;;;;4.00;4.00;;;;;24.84;37.41;100743.78;110563;1258;18601;-64
2022/07/14 10:28:57;;;;;;;;;6.50;6.50;;;;;24.84;37.27;100740.66;110533;1258;19013;-63
2022/07/14 10:31:24;;;;;;;;;14.00;13.00;;;;;24.71;37.00;100750.59;110571;1259;19692;-63
2022/07/14 10:33:51;;;;;;;;;12.00;11.00;;;;;24.61;36.57;100747.08;110686;1258;19778;-63
2022/07/14 10:36:19;;;;;;;;;11.00;9.33;;;;;24.57;37.27;100750.73;110704;1258;18797;-63
2022/07/14 10:38:47;;;;;;;;;9.00;8.67;;;;;24.50;37.59;100747.10;110673;1258;19593;-62
2022/07/14 10:41:14;;;;;;;;;8.00;7.33;;;;;24.42;38.08;100746.29;110594;1258;20231;-61
2022/07/14 10:43:41;;;;;;;;;11.33;8.00;;;;;24.40;38.35;100749.79;110520;1258;18716;-62
2022/07/14 10:46:08;;;;;;;;;4.00;4.00;;;;;24.40;38.26;100745.32;110566;1258;19582;-60
2022/07/14 10:48:36;;;;;;;;;3.50;3.50;;;;;24.60;36.95;100741.98;110504;1259;18766;-59
2022/07/14 10:51:03;;;;;;;;;3.00;3.00;;;;;24.61;35.75;100737.09;110513;1258;18704;-60
2022/07/14 10:53:30;;;;;;;;;3.00;3.00;;;;;24.56;35.62;100737.31;110462;1258;20608;-64
2022/07/14 10:55:57;;;;;;;;;5.67;5.67;;;;;24.55;35.56;100737.64;110669;1258;18703;-62
2022/07/14 10:58:25;;;;;;;;;3.67;3.00;;;;;24.49;35.27;100732.80;110691;1258;20195;-63
2022/07/14 11:00:56;;;;;;;;;3.00;2.00;;;;;24.57;35.18;100730.29;110661;1258;19549;-63
2022/07/14 11:03:24;;;;;;;;;4.00;4.00;;;;;24.70;35.47;100736.59;110647;1258;21944;-63
2022/07/14 11:05:51;;;;;;;;;3.33;3.33;;;;;24.74;35.09;100738.09;110546;1258;18752;-63
2022/07/14 11:08:18;;;;;;;;;3.00;3.00;;;;;24.70;35.13;100739.66;110511;1260;20864;-63
2022/07/14 11:10:46;;;;;;;;;6.00;6.00;;;;;24.63;35.57;100735.20;110550;1259;18472;-63
2022/07/14 11:13:13;;;;;;;;;4.00;4.00;;;;;24.65;36.05;100732.44;110460;1258;18723;-62
2022/07/14 11:15:40;;;;;;;;;5.33;5.33;;;;;24.63;36.92;100734.45;110619;1259;19647;-62
2022/07/14 11:18:07;;;;;;;;;4.00;4.00;;;;;24.63;37.09;100731.75;110367;1259;22447;-62
2022/07/14 11:20:34;;;;;;;;;6.00;6.00;;;;;24.61;37.20;100730.42;110780;1259;19529;-63